createdAt,value
2018-07-24T00:01:45.782Z,100.00
2018-07-24T00:04:14.005Z,100.00
2018-07-24T00:06:42.262Z,100.00
2018-07-24T00:09:10.569Z,100.00
2018-07-24T00:11:38.782Z,100.00
2018-07-24T00:14:07.010Z,100.00
2018-07-24T00:16:35.257Z,100.00
2018-07-24T00:19:03.510Z,100.00
2018-07-24T00:21:31.729Z,100.00
2018-07-24T00:24:00.058Z,100.00
2018-07-24T00:26:28.297Z,100.00
2018-07-24T00:28:56.523Z,100.00
2018-07-24T00:31:24.850Z,100.00
2018-07-24T00:33:53.024Z,100.00
2018-07-24T00:36:21.255Z,100.00
2018-07-24T00:38:49.677Z,100.00
2018-07-24T00:41:17.905Z,100.00
2018-07-24T00:43:46.158Z,100.00
2018-07-24T00:46:14.386Z,100.00
2018-07-24T00:48:42.718Z,100.00
2018-07-24T00:51:10.953Z,100.00
2018-07-24T00:53:39.213Z,100.00
2018-07-24T00:56:07.715Z,100.00
2018-07-24T00:58:35.926Z,100.00
2018-07-24T01:01:04.145Z,100.00
2018-07-24T01:03:32.485Z,100.00
2018-07-24T01:06:00.733Z,100.00
2018-07-24T01:08:29.021Z,100.00
2018-07-24T01:10:57.193Z,100.00
2018-07-24T01:13:25.430Z,100.00
2018-07-24T01:15:53.663Z,100.00
2018-07-24T01:18:21.870Z,100.00
2018-07-24T01:20:50.101Z,100.00
2018-07-24T01:23:18.370Z,100.00
2018-07-24T01:25:46.611Z,100.00
2018-07-24T01:28:14.878Z,100.00
2018-07-24T01:30:43.082Z,100.00
2018-07-24T01:33:11.404Z,100.00
2018-07-24T01:35:39.619Z,100.00
2018-07-24T01:38:07.898Z,100.00
2018-07-24T01:40:36.116Z,100.00
2018-07-24T01:43:04.379Z,100.00
2018-07-24T01:45:32.604Z,100.00
2018-07-24T01:48:00.819Z,100.00
2018-07-24T01:50:29.054Z,100.00
2018-07-24T01:52:57.282Z,100.00
2018-07-24T01:55:25.523Z,100.00
2018-07-24T01:57:53.746Z,100.00
2018-07-24T02:00:21.962Z,100.00
2018-07-24T02:02:50.187Z,100.00
2018-07-24T02:05:18.394Z,100.00
2018-07-24T02:07:46.601Z,100.00
2018-07-24T02:10:14.826Z,100.00
2018-07-24T02:12:43.035Z,100.00
2018-07-24T02:15:11.272Z,100.00
2018-07-24T02:17:39.505Z,100.00
2018-07-24T02:20:07.740Z,100.00
2018-07-24T02:22:35.965Z,100.00
2018-07-24T02:25:04.191Z,100.00
2018-07-24T02:27:32.423Z,100.00
2018-07-24T02:30:00.637Z,100.00
2018-07-24T02:32:28.842Z,100.00
2018-07-24T02:34:57.080Z,100.00
2018-07-24T02:37:25.364Z,100.00
2018-07-24T02:39:53.591Z,100.00
2018-07-24T02:42:21.822Z,100.00
2018-07-24T02:44:50.044Z,100.00
2018-07-24T02:47:18.276Z,100.00
2018-07-24T02:49:46.487Z,100.00
2018-07-24T02:52:14.719Z,100.00
2018-07-24T02:54:43.193Z,100.00
2018-07-24T02:57:11.453Z,100.00
2018-07-24T02:59:39.702Z,100.00
2018-07-24T03:02:08.391Z,100.00
2018-07-24T03:04:36.794Z,100.00
2018-07-24T03:07:05.049Z,100.00
2018-07-24T03:09:33.254Z,100.00
2018-07-24T03:12:01.508Z,100.00
2018-07-24T03:14:29.771Z,100.00
2018-07-24T03:16:58.006Z,100.00
2018-07-24T03:19:26.258Z,100.00
2018-07-24T03:21:54.490Z,100.00
2018-07-24T03:24:22.727Z,100.00
2018-07-24T03:26:51.323Z,100.00
2018-07-24T03:29:19.856Z,100.00
2018-07-24T03:31:48.090Z,100.00
2018-07-24T03:34:16.415Z,100.00
2018-07-24T03:36:44.663Z,100.00
2018-07-24T03:39:13.648Z,100.00
2018-07-24T03:41:42.155Z,100.00
2018-07-24T03:44:10.632Z,100.00
2018-07-24T03:46:38.863Z,100.00
2018-07-24T03:49:07.111Z,100.00
2018-07-24T03:51:35.327Z,100.00
2018-07-24T03:54:03.572Z,100.00
2018-07-24T03:56:31.859Z,100.00
2018-07-24T03:59:00.087Z,100.00
2018-07-24T04:01:28.341Z,100.00
2018-07-24T04:03:56.543Z,100.00
2018-07-24T04:06:24.780Z,100.00
2018-07-24T04:08:53.098Z,100.00
2018-07-24T04:11:21.340Z,100.00
2018-07-24T04:13:49.554Z,100.00
2018-07-24T04:16:17.798Z,100.00
2018-07-24T04:18:48.007Z,100.00
2018-07-24T04:21:17.649Z,100.00
2018-07-24T04:23:46.211Z,100.00
2018-07-24T04:26:14.559Z,100.00
2018-07-24T04:28:44.131Z,100.00
2018-07-24T04:31:13.071Z,100.00
2018-07-24T04:33:42.615Z,100.00
2018-07-24T04:36:10.866Z,100.00
2018-07-24T04:38:39.196Z,100.00
2018-07-24T04:41:07.503Z,100.00
2018-07-24T04:43:35.779Z,100.00
2018-07-24T04:46:04.023Z,100.00
2018-07-24T04:48:32.668Z,100.00
2018-07-24T04:51:00.881Z,100.00
2018-07-24T04:53:29.148Z,100.00
2018-07-24T04:55:57.387Z,100.00
2018-07-24T04:58:25.607Z,100.00
2018-07-24T05:00:54.046Z,100.00
2018-07-24T05:03:22.327Z,100.00
2018-07-24T05:05:50.574Z,100.00
2018-07-24T05:08:19.018Z,100.00
2018-07-24T05:10:47.327Z,100.00
2018-07-24T05:13:15.565Z,100.00
2018-07-24T05:15:43.769Z,100.00
2018-07-24T05:18:11.980Z,100.00
2018-07-24T05:20:40.219Z,100.00
2018-07-24T05:23:08.455Z,100.00
2018-07-24T05:25:36.738Z,100.00
2018-07-24T05:28:04.994Z,100.00
2018-07-24T05:30:33.285Z,100.00
2018-07-24T05:33:01.496Z,100.00
2018-07-24T05:35:29.747Z,100.00
2018-07-24T05:37:57.987Z,100.00
2018-07-24T05:40:26.304Z,100.00
2018-07-24T05:42:55.339Z,100.00
2018-07-24T05:45:23.542Z,99.39
2018-07-24T05:47:51.794Z,98.79
2018-07-24T05:50:20.050Z,99.85
2018-07-24T05:52:48.302Z,99.51
2018-07-24T05:55:16.556Z,98.88
2018-07-24T05:57:44.789Z,98.05
2018-07-24T06:00:13.031Z,98.09
2018-07-24T06:02:41.254Z,98.81
2018-07-24T06:05:09.501Z,98.25
2018-07-24T06:07:37.715Z,98.06
2018-07-24T06:10:05.979Z,96.87
2018-07-24T06:12:34.222Z,97.24
2018-07-24T06:15:02.443Z,96.92
2018-07-24T06:17:30.707Z,95.33
2018-07-24T06:19:58.898Z,95.79
2018-07-24T06:22:27.147Z,94.92
2018-07-24T06:24:55.387Z,96.01
2018-07-24T06:27:23.595Z,95.12
2018-07-24T06:29:51.904Z,94.94
2018-07-24T06:32:20.256Z,98.16
2018-07-24T06:34:48.499Z,94.26
2018-07-24T06:37:16.731Z,94.20
2018-07-24T06:39:44.973Z,91.72
2018-07-24T06:42:13.187Z,91.41
2018-07-24T06:44:41.544Z,90.37
2018-07-24T06:47:09.704Z,91.79
2018-07-24T06:49:37.943Z,92.90
2018-07-24T06:52:06.610Z,91.82
2018-07-24T06:54:34.892Z,91.10
2018-07-24T06:57:03.185Z,89.21
2018-07-24T06:59:31.387Z,88.54
2018-07-24T07:01:59.615Z,88.04
2018-07-24T07:04:27.859Z,86.72
2018-07-24T07:06:56.062Z,86.62
2018-07-24T07:09:24.282Z,83.93
2018-07-24T07:11:52.512Z,81.96
2018-07-24T07:14:20.881Z,85.10
2018-07-24T07:16:49.147Z,84.41
2018-07-24T07:19:17.376Z,81.91
2018-07-24T07:21:45.591Z,81.40
2018-07-24T07:24:13.835Z,78.98
2018-07-24T07:26:42.046Z,82.66
2018-07-24T07:29:10.343Z,77.57
2018-07-24T07:31:38.518Z,79.13
2018-07-24T07:34:06.819Z,76.14
2018-07-24T07:36:35.035Z,73.77
2018-07-24T07:39:03.415Z,74.89
2018-07-24T07:41:31.654Z,75.88
2018-07-24T07:43:59.920Z,78.81
2018-07-24T07:46:28.094Z,75.83
2018-07-24T07:48:56.334Z,72.17
2018-07-24T07:51:24.666Z,73.20
2018-07-24T07:53:52.893Z,72.49
2018-07-24T07:56:21.131Z,69.93
2018-07-24T07:58:49.412Z,71.14
2018-07-24T08:01:17.643Z,70.91
2018-07-24T08:03:45.878Z,69.22
2018-07-24T08:06:14.114Z,69.26
2018-07-24T08:08:42.383Z,69.20
2018-07-24T08:11:10.797Z,67.84
2018-07-24T08:13:39.027Z,68.23
2018-07-24T08:16:07.287Z,69.07
2018-07-24T08:18:35.546Z,68.61
2018-07-24T08:21:03.786Z,69.27
2018-07-24T08:23:32.023Z,68.50
2018-07-24T08:26:00.251Z,69.78
2018-07-24T08:28:28.654Z,69.92
2018-07-24T08:30:57.174Z,64.87
2018-07-24T08:33:25.399Z,65.82
2018-07-24T08:35:53.616Z,66.31
2018-07-24T08:38:21.826Z,65.79
2018-07-24T08:40:50.065Z,62.33
2018-07-24T08:43:18.297Z,64.77
2018-07-24T08:45:46.566Z,65.33
2018-07-24T08:48:14.786Z,65.83
2018-07-24T08:50:43.031Z,63.40
2018-07-24T08:53:11.473Z,63.34
2018-07-24T08:55:39.705Z,63.24
2018-07-24T08:58:07.743Z,60.59
2018-07-24T09:00:35.990Z,62.00
2018-07-24T09:03:04.203Z,60.02
2018-07-24T09:05:32.451Z,57.93
2018-07-24T09:08:00.758Z,58.70
2018-07-24T09:10:28.998Z,56.97
2018-07-24T09:12:57.222Z,54.43
2018-07-24T09:15:25.480Z,55.53
2018-07-24T09:17:53.667Z,54.67
2018-07-24T09:20:21.887Z,56.37
2018-07-24T09:22:50.102Z,56.05
2018-07-24T09:25:18.339Z,57.45
2018-07-24T09:27:46.881Z,54.16
2018-07-24T09:30:15.122Z,52.26
2018-07-24T09:32:43.355Z,52.62
2018-07-24T09:35:11.560Z,53.29
2018-07-24T09:37:39.783Z,54.84
2018-07-24T09:40:08.095Z,53.71
2018-07-24T09:42:36.320Z,52.60
2018-07-24T09:45:05.486Z,48.70
2018-07-24T09:47:33.725Z,49.86
2018-07-24T09:50:01.920Z,50.47
2018-07-24T09:52:30.151Z,50.40
2018-07-24T09:54:58.428Z,47.83
2018-07-24T09:57:26.688Z,48.90
2018-07-24T09:59:54.919Z,48.52
2018-07-24T10:02:23.126Z,48.84
2018-07-24T10:04:51.380Z,49.27
2018-07-24T10:07:19.634Z,50.92
2018-07-24T10:09:47.895Z,48.11
2018-07-24T10:12:16.175Z,47.87
2018-07-24T10:14:44.326Z,45.24
2018-07-24T10:17:12.547Z,48.92
2018-07-24T10:19:40.755Z,44.02
2018-07-24T10:22:08.985Z,46.41
2018-07-24T10:24:37.284Z,46.16
2018-07-24T10:27:05.522Z,47.07
2018-07-24T10:29:33.742Z,47.95
2018-07-24T10:32:01.979Z,48.24
2018-07-24T10:34:30.203Z,46.33
2018-07-24T10:36:58.447Z,46.61
2018-07-24T10:39:26.704Z,46.69
2018-07-24T10:41:54.939Z,45.39
2018-07-24T10:44:23.155Z,46.43
2018-07-24T10:46:51.366Z,46.97
2018-07-24T10:49:19.688Z,45.19
2018-07-24T10:51:47.826Z,46.08
2018-07-24T10:54:16.049Z,46.22
2018-07-24T10:56:44.251Z,46.06
2018-07-24T10:59:12.454Z,45.70
2018-07-24T11:01:40.712Z,49.12
2018-07-24T11:04:08.907Z,47.42
2018-07-24T11:06:37.978Z,44.42
2018-07-24T11:09:08.323Z,44.44
2018-07-24T11:11:36.695Z,43.71
2018-07-24T11:14:04.929Z,42.47
2018-07-24T11:16:33.178Z,44.00
2018-07-24T11:19:01.372Z,45.61
2018-07-24T11:21:29.624Z,44.76
2018-07-24T11:23:57.835Z,43.03
2018-07-24T11:26:26.058Z,43.12
2018-07-24T11:28:54.292Z,43.83
2018-07-24T11:31:22.494Z,44.58
2018-07-24T11:33:50.716Z,43.21
2018-07-24T11:36:19.015Z,43.80
2018-07-24T11:38:47.157Z,42.53
2018-07-24T11:41:15.381Z,43.24
2018-07-24T11:43:43.588Z,46.91
2018-07-24T11:46:11.811Z,44.63
2018-07-24T11:48:40.079Z,45.24
2018-07-24T11:51:08.901Z,44.60
2018-07-24T11:53:37.169Z,44.96
2018-07-24T11:56:05.415Z,44.67
2018-07-24T11:58:33.662Z,44.62
2018-07-24T12:01:01.992Z,46.51
2018-07-24T12:03:30.340Z,44.84
2018-07-24T12:05:58.550Z,48.43
2018-07-24T12:08:26.787Z,44.69
2018-07-24T12:10:55.000Z,46.21
2018-07-24T12:13:23.214Z,44.41
2018-07-24T12:15:51.422Z,44.23
2018-07-24T12:18:19.650Z,46.47
2018-07-24T12:20:47.943Z,44.50
2018-07-24T12:23:16.172Z,43.43
2018-07-24T12:25:44.531Z,44.31
2018-07-24T12:28:12.751Z,44.04
2018-07-24T12:30:41.047Z,42.46
2018-07-24T12:33:09.270Z,44.73
2018-07-24T12:35:37.657Z,44.36
2018-07-24T12:38:05.856Z,43.30
2018-07-24T12:40:34.187Z,44.13
2018-07-24T12:43:02.476Z,44.06
2018-07-24T12:45:30.767Z,41.54
2018-07-24T12:47:59.072Z,42.13
2018-07-24T12:50:27.418Z,42.62
2018-07-24T12:52:56.702Z,41.96
2018-07-24T12:55:25.041Z,41.48
2018-07-24T12:57:53.307Z,41.04
2018-07-24T13:03:20.334Z,39.95
2018-07-24T13:05:48.607Z,41.34
2018-07-24T13:08:16.899Z,41.29
2018-07-24T13:10:45.247Z,40.66
2018-07-24T13:13:13.517Z,41.41
2018-07-24T13:15:41.756Z,41.10
2018-07-24T13:18:10.033Z,41.96
2018-07-24T13:20:38.323Z,39.89
2018-07-24T13:23:06.640Z,42.55
2018-07-24T13:25:34.945Z,41.26
2018-07-24T13:28:03.267Z,41.40
2018-07-24T13:30:31.579Z,42.08
2018-07-24T13:32:59.850Z,42.22
2018-07-24T13:35:28.182Z,42.84
2018-07-24T13:37:56.439Z,44.20
2018-07-24T13:40:25.658Z,43.48
2018-07-24T13:42:53.866Z,41.60
2018-07-24T13:45:22.151Z,42.42
2018-07-24T13:47:50.422Z,40.30
2018-07-24T13:53:01.435Z,40.24
2018-07-24T13:55:29.734Z,41.96
2018-07-24T13:57:58.028Z,40.36
2018-07-24T14:00:26.303Z,38.04
2018-07-24T14:02:54.604Z,38.46
2018-07-24T14:05:22.918Z,40.13
2018-07-24T14:07:51.170Z,40.24
2018-07-24T14:10:19.439Z,39.15
2018-07-24T14:12:47.752Z,40.85
2018-07-24T14:15:16.048Z,39.34
2018-07-24T14:17:44.251Z,38.17
2018-07-24T14:20:12.455Z,38.51
2018-07-24T14:22:40.711Z,39.92
2018-07-24T14:25:08.934Z,39.84
2018-07-24T14:27:37.144Z,40.29
2018-07-24T14:30:06.979Z,39.13
2018-07-24T14:32:35.195Z,38.95
2018-07-24T14:35:03.406Z,41.31
2018-07-24T14:37:31.602Z,41.07
2018-07-24T14:39:59.811Z,38.83
2018-07-24T14:42:28.016Z,38.68
2018-07-24T14:44:56.249Z,37.83
2018-07-24T14:47:24.487Z,39.24
2018-07-24T14:49:52.716Z,38.68
2018-07-24T14:52:20.926Z,38.17
2018-07-24T14:54:49.163Z,37.20
2018-07-24T14:57:17.401Z,37.70
2018-07-24T14:59:45.591Z,36.34
2018-07-24T15:02:13.847Z,38.34
2018-07-24T15:04:42.097Z,36.66
2018-07-24T15:07:10.291Z,36.64
2018-07-24T15:09:38.513Z,36.75
2018-07-24T15:12:06.953Z,37.41
2018-07-24T15:14:35.190Z,36.53
2018-07-24T15:17:09.115Z,37.08
2018-07-24T15:19:37.255Z,33.55
2018-07-24T15:22:05.484Z,34.52
2018-07-24T15:24:33.695Z,33.50
2018-07-24T15:27:01.910Z,37.12
2018-07-24T15:29:30.110Z,36.19
2018-07-24T15:31:58.312Z,36.95
2018-07-24T15:34:26.620Z,35.88
2018-07-24T15:36:54.744Z,35.16
2018-07-24T15:39:22.943Z,36.45
2018-07-24T15:41:51.161Z,34.97
2018-07-24T15:44:19.415Z,35.17
2018-07-24T15:46:47.659Z,34.24
2018-07-24T15:49:15.905Z,34.82
2018-07-24T15:51:44.097Z,34.74
2018-07-24T15:54:12.315Z,35.49
2018-07-24T15:56:40.530Z,36.59
2018-07-24T15:59:08.791Z,36.60
2018-07-24T16:01:36.998Z,34.10
2018-07-24T16:04:05.222Z,34.58
2018-07-24T16:06:33.443Z,33.55
2018-07-24T16:09:01.664Z,31.89
2018-07-24T16:11:29.895Z,30.44
2018-07-24T16:13:58.104Z,33.69
2018-07-24T16:16:26.340Z,34.35
2018-07-24T16:18:54.562Z,35.10
2018-07-24T16:21:22.804Z,34.59
2018-07-24T16:23:51.040Z,33.45
2018-07-24T16:26:19.259Z,31.24
2018-07-24T16:28:47.455Z,29.16
2018-07-24T16:31:15.666Z,33.32
2018-07-24T16:33:43.955Z,31.17
2018-07-24T16:36:13.052Z,29.63
2018-07-24T16:38:41.299Z,30.07
2018-07-24T16:41:09.574Z,28.94
2018-07-24T16:43:37.775Z,30.03
2018-07-24T16:46:06.297Z,32.59
2018-07-24T16:48:34.547Z,31.14
2018-07-24T16:51:02.779Z,31.42
2018-07-24T16:53:31.059Z,32.40
2018-07-24T16:55:59.330Z,31.54
2018-07-24T16:58:27.535Z,31.80
2018-07-24T17:00:55.837Z,30.99
2018-07-24T17:03:24.250Z,30.63
2018-07-24T17:05:52.448Z,29.14
2018-07-24T17:08:20.702Z,29.33
2018-07-24T17:10:48.888Z,30.28
2018-07-24T17:13:17.103Z,32.03
2018-07-24T17:15:45.324Z,34.40
2018-07-24T17:18:13.538Z,35.92
2018-07-24T17:20:41.807Z,37.43
2018-07-24T17:23:10.023Z,37.36
2018-07-24T17:25:38.227Z,36.74
2018-07-24T17:28:06.478Z,39.93
2018-07-24T17:30:34.767Z,41.80
2018-07-24T17:33:02.996Z,39.84
2018-07-24T17:35:31.219Z,42.17
2018-07-24T17:37:59.406Z,43.17
2018-07-24T17:40:27.670Z,43.30
2018-07-24T17:42:55.899Z,42.29
2018-07-24T17:45:24.111Z,45.68
2018-07-24T17:47:52.337Z,41.31
2018-07-24T17:50:20.566Z,42.45
2018-07-24T17:52:48.747Z,42.11
2018-07-24T17:55:16.973Z,42.39
2018-07-24T17:57:45.174Z,43.58
2018-07-24T18:00:13.392Z,42.94
2018-07-24T18:02:41.612Z,43.45
2018-07-24T18:05:10.798Z,45.56
2018-07-24T18:07:39.011Z,43.01
2018-07-24T18:10:07.236Z,44.01
2018-07-24T18:12:35.427Z,44.22
2018-07-24T18:15:03.689Z,44.96
2018-07-24T18:17:31.891Z,45.39
2018-07-24T18:20:00.088Z,44.55
2018-07-24T18:22:28.307Z,44.82
2018-07-24T18:24:56.498Z,44.48
2018-07-24T18:27:24.699Z,45.60
2018-07-24T18:29:52.942Z,45.12
2018-07-24T18:32:21.162Z,45.22
2018-07-24T18:34:49.391Z,45.04
2018-07-24T18:37:17.623Z,44.95
2018-07-24T18:39:45.830Z,45.92
2018-07-24T18:42:14.047Z,45.92
2018-07-24T18:44:42.267Z,46.34
2018-07-24T18:47:10.567Z,45.91
2018-07-24T18:49:38.782Z,46.90
2018-07-24T18:52:07.046Z,48.75
2018-07-24T18:54:35.286Z,47.83
2018-07-24T18:57:03.723Z,49.32
2018-07-24T18:59:31.999Z,50.79
2018-07-24T19:02:00.250Z,52.96
2018-07-24T19:04:28.455Z,54.07
2018-07-24T19:06:56.658Z,51.10
2018-07-24T19:09:24.883Z,53.70
2018-07-24T19:11:53.152Z,54.68
2018-07-24T19:14:21.391Z,54.56
2018-07-24T19:16:49.647Z,52.03
2018-07-24T19:19:17.872Z,52.36
2018-07-24T19:21:46.090Z,54.03
2018-07-24T19:24:14.315Z,54.98
2018-07-24T19:26:42.519Z,56.54
2018-07-24T19:29:10.759Z,55.11
2018-07-24T19:31:38.983Z,57.17
2018-07-24T19:34:07.511Z,56.73
2018-07-24T19:36:35.750Z,55.62
2018-07-24T19:39:06.434Z,57.54
2018-07-24T19:41:34.682Z,57.57
2018-07-24T19:44:03.000Z,57.74
2018-07-24T19:46:31.167Z,58.14
2018-07-24T19:48:59.454Z,60.05
2018-07-24T19:51:27.768Z,58.77
2018-07-24T19:53:56.293Z,60.08
2018-07-24T19:56:24.599Z,58.49
2018-07-24T19:58:52.900Z,56.93
2018-07-24T20:01:21.203Z,59.51
2018-07-24T20:03:49.476Z,59.02
2018-07-24T20:06:17.775Z,57.48
2018-07-24T20:08:46.155Z,57.21
2018-07-24T20:11:14.439Z,58.44
2018-07-24T20:13:42.671Z,58.69
2018-07-24T20:16:10.934Z,60.25
2018-07-24T20:18:39.218Z,59.55
2018-07-24T20:21:07.545Z,60.38
2018-07-24T20:23:35.871Z,59.55
2018-07-24T20:26:04.093Z,59.24
2018-07-24T20:28:32.375Z,61.67
2018-07-24T20:31:00.692Z,62.50
2018-07-24T20:33:28.959Z,61.53
2018-07-24T20:35:57.236Z,58.73
2018-07-24T20:38:25.628Z,58.51
2018-07-24T20:40:53.953Z,59.67
2018-07-24T20:43:22.232Z,60.81
2018-07-24T20:45:50.590Z,62.36
2018-07-24T20:48:18.882Z,64.82
2018-07-24T20:50:47.267Z,61.29
2018-07-24T20:53:15.589Z,61.66
2018-07-24T20:55:43.905Z,63.35
2018-07-24T20:58:12.143Z,67.20
2018-07-24T21:00:40.645Z,67.47
2018-07-24T21:03:08.868Z,67.82
2018-07-24T21:05:37.197Z,67.06
2018-07-24T21:08:05.539Z,67.15
2018-07-24T21:10:34.057Z,66.93
2018-07-24T21:13:02.462Z,68.27
2018-07-24T21:15:30.658Z,68.59
2018-07-24T21:17:59.338Z,69.99
2018-07-24T21:20:27.551Z,67.43
2018-07-24T21:22:55.936Z,68.16
2018-07-24T21:25:24.379Z,68.78
2018-07-24T21:27:52.707Z,68.49
2018-07-24T21:30:21.069Z,67.28
2018-07-24T21:32:49.329Z,67.88
2018-07-24T21:35:17.623Z,69.44
2018-07-24T21:37:46.182Z,69.42
2018-07-24T21:40:14.563Z,69.83
2018-07-24T21:42:43.034Z,71.96
2018-07-24T21:45:11.283Z,72.97
2018-07-24T21:47:39.669Z,74.88
2018-07-24T21:50:08.048Z,74.01
2018-07-24T21:52:36.385Z,73.03
2018-07-24T21:55:04.894Z,73.83
2018-07-24T21:57:33.306Z,78.01
2018-07-24T22:00:01.577Z,75.75
2018-07-24T22:02:29.964Z,74.12
2018-07-24T22:04:58.243Z,72.97
2018-07-24T22:07:26.556Z,74.90
2018-07-24T22:09:54.775Z,71.44
2018-07-24T22:12:23.027Z,76.29
2018-07-24T22:14:51.255Z,73.61
2018-07-24T22:17:19.480Z,74.93
2018-07-24T22:19:47.712Z,73.46
2018-07-24T22:22:15.919Z,73.14
2018-07-24T22:24:44.150Z,73.35
2018-07-24T22:27:12.363Z,75.33
2018-07-24T22:29:40.594Z,74.05
2018-07-24T22:32:08.836Z,75.25
2018-07-24T22:34:37.051Z,76.85
2018-07-24T22:37:05.291Z,72.77
2018-07-24T22:39:33.502Z,75.27
2018-07-24T22:42:01.695Z,76.38
2018-07-24T22:44:29.943Z,76.59
2018-07-24T22:46:58.169Z,77.75
2018-07-24T22:49:26.389Z,78.56
2018-07-24T22:51:54.606Z,77.34
2018-07-24T22:54:22.842Z,77.13
2018-07-24T22:56:51.093Z,76.71
2018-07-24T22:59:19.277Z,79.67
2018-07-24T23:01:47.471Z,77.86
2018-07-24T23:04:15.695Z,78.92
2018-07-24T23:06:43.923Z,80.22
2018-07-24T23:09:12.150Z,79.60
2018-07-24T23:11:40.618Z,81.17
2018-07-24T23:14:08.870Z,80.26
2018-07-24T23:16:37.183Z,79.07
2018-07-24T23:19:05.438Z,79.98
2018-07-24T23:21:33.666Z,80.18
2018-07-24T23:24:01.882Z,83.69
2018-07-24T23:26:30.094Z,81.56
2018-07-24T23:28:58.307Z,80.30
2018-07-24T23:31:26.532Z,82.08
2018-07-24T23:33:54.751Z,82.99
2018-07-24T23:36:22.950Z,81.99
2018-07-24T23:38:51.174Z,82.28
2018-07-24T23:41:19.414Z,83.16
2018-07-24T23:43:47.622Z,83.14
2018-07-24T23:46:15.842Z,84.45
2018-07-24T23:48:44.041Z,84.27
2018-07-24T23:51:12.258Z,84.18
2018-07-24T23:53:40.539Z,84.29
2018-07-24T23:56:08.751Z,82.97
2018-07-24T23:58:36.962Z,84.12
